Time;durP1;ratioP1;P1;durP2;ratioP2;P2;SDS_P1;SDS_P2;PMS_P1;PMS_P2;Temp;Humidity;BMP_temperature;BMP_pressure;BME280_temperature;BME280_humidity;BME280_pressure;Samples;Min_cycle;Max_cycle;Signal;HPM_P1;HPM_P2
2024/02/07 00:00:38;;;;;;;0.60;0.60;;;5.20;99.90;;;;;;6208820;23;20020;-78
2024/02/07 00:03:04;;;;;;;0.60;0.60;;;5.20;99.90;;;;;;6210163;23;20083;-77
2024/02/07 00:05:29;;;;;;;0.50;0.50;;;5.30;99.90;;;;;;6212163;23;20027;-79
2024/02/07 00:07:55;;;;;;;0.47;0.47;;;5.30;99.90;;;;;;6137953;23;20020;-78
2024/02/07 00:10:21;;;;;;;0.50;0.50;;;5.20;99.90;;;;;;6186333;23;20445;-80
2024/02/07 00:12:47;;;;;;;0.60;0.60;;;5.30;99.90;;;;;;6211493;23;20063;-78
2024/02/07 00:15:14;;;;;;;0.50;0.50;;;5.30;99.90;;;;;;6186968;23;20012;-78
2024/02/07 00:17:39;;;;;;;0.52;0.52;;;5.30;99.90;;;;;;6211988;23;20286;-78
2024/02/07 00:20:12;;;;;;;0.52;0.52;;;5.30;99.90;;;;;;6212694;23;20074;-79
2024/02/07 00:22:39;;;;;;;0.50;0.50;;;5.30;99.90;;;;;;6213753;23;20016;-79
2024/02/07 00:25:07;;;;;;;0.50;0.50;;;6.10;99.90;;;;;;6240461;23;20020;-79
2024/02/07 00:27:33;;;;;;;1.35;1.30;;;5.30;99.90;;;;;;6214949;23;20008;-80
2024/02/07 00:30:00;;;;;;;0.60;0.60;;;5.30;99.90;;;;;;6191774;23;20040;-79
2024/02/07 00:32:26;;;;;;;0.50;0.50;;;5.30;99.90;;;;;;6190989;23;20011;-79
2024/02/07 00:34:51;;;;;;;0.77;0.77;;;5.30;99.90;;;;;;6215791;23;20106;-78
2024/02/07 00:37:17;;;;;;;0.57;0.57;;;5.30;99.90;;;;;;6215627;23;20023;-79
2024/02/07 00:39:46;;;;;;;0.50;0.50;;;5.30;99.90;;;;;;6165913;23;20008;-79
2024/02/07 00:42:11;;;;;;;3.05;1.00;;;5.90;99.90;;;;;;6243303;23;20085;-79
2024/02/07 00:44:38;;;;;;;0.50;0.50;;;5.30;99.90;;;;;;6191330;23;20452;-80
2024/02/07 00:47:06;;;;;;;0.50;0.50;;;5.70;99.90;;;;;;6191489;23;20016;-78
2024/02/07 00:49:33;;;;;;;0.50;0.50;;;5.60;99.90;;;;;;6216452;23;20020;-79
2024/02/07 00:51:59;;;;;;;0.50;0.50;;;5.40;99.90;;;;;;6216842;23;20026;-80
2024/02/07 00:54:25;;;;;;;0.60;0.60;;;5.40;99.90;;;;;;6217084;23;20050;-80
2024/02/07 00:56:54;;;;;;;0.50;0.50;;;5.40;99.90;;;;;;6191197;23;20016;-79
2024/02/07 00:59:20;;;;;;;0.50;0.50;;;5.40;99.90;;;;;;6168390;23;20384;-79
2024/02/07 01:01:46;;;;;;;0.50;0.50;;;5.40;99.90;;;;;;6217642;23;20012;-79
2024/02/07 01:04:11;;;;;;;0.60;0.60;;;5.50;99.90;;;;;;6191243;23;20088;-79
2024/02/07 01:06:39;;;;;;;0.60;0.60;;;5.50;99.90;;;;;;6190099;23;20016;-79
2024/02/07 01:09:13;;;;;;;0.47;0.47;;;5.50;99.90;;;;;;6217571;23;20101;-79
2024/02/07 01:11:47;;;;;;;0.60;0.60;;;5.70;99.90;;;;;;6189501;23;20133;-79
2024/02/07 01:14:14;;;;;;;0.93;0.93;;;5.60;99.90;;;;;;6191304;23;20356;-79
2024/02/07 01:16:40;;;;;;;0.50;0.50;;;5.50;99.90;;;;;;6192445;23;20023;-79
2024/02/07 01:19:07;;;;;;;0.50;0.50;;;5.60;99.90;;;;;;6191985;23;20012;-78
2024/02/07 01:21:36;;;;;;;0.40;0.40;;;5.60;99.90;;;;;;6248109;23;20017;-81
2024/02/07 01:24:09;;;;;;;0.75;0.75;;;5.70;99.90;;;;;;6248781;23;20095;-81
2024/02/07 01:26:35;;;;;;;0.50;0.50;;;5.70;99.90;;;;;;6195009;23;20147;-81
2024/02/07 01:29:02;;;;;;;0.60;0.60;;;5.70;99.90;;;;;;6193754;23;20046;-81
2024/02/07 01:31:28;;;;;;;0.60;0.60;;;5.70;99.90;;;;;;6195099;23;20391;-80
2024/02/07 01:33:57;;;;;;;0.50;0.50;;;5.80;99.90;;;;;;6243871;23;20016;-80
2024/02/07 01:36:24;;;;;;;0.52;0.52;;;5.80;99.90;;;;;;6219846;23;20012;-82
2024/02/07 01:38:54;;;;;;;0.60;0.60;;;6.20;99.90;;;;;;6146657;23;20020;-80
2024/02/07 01:41:21;;;;;;;0.50;0.50;;;6.40;99.90;;;;;;6218768;23;20464;-81
2024/02/07 01:43:47;;;;;;;0.60;0.60;;;5.70;99.90;;;;;;6194072;23;20070;-79
2024/02/07 01:46:19;;;;;;;0.60;0.60;;;5.70;99.90;;;;;;6216762;23;20093;-79
2024/02/07 01:48:47;;;;;;;0.50;0.50;;;5.70;99.90;;;;;;6190004;23;20074;-80
2024/02/07 01:51:15;;;;;;;0.60;0.60;;;5.70;99.90;;;;;;6191850;23;20020;-80
2024/02/07 01:53:42;;;;;;;0.55;0.55;;;5.70;99.90;;;;;;6195010;23;20016;-82
2024/02/07 01:56:10;;;;;;;0.70;0.70;;;5.70;99.90;;;;;;6193882;23;20020;-79
2024/02/07 01:58:36;;;;;;;0.50;0.50;;;6.30;99.90;;;;;;6192367;23;20018;-79
2024/02/07 02:01:02;;;;;;;;;;;5.60;99.90;;;;;;6193779;23;20086;-79
2024/02/07 02:03:28;;;;;;;0.60;0.60;;;5.60;99.90;;;;;;6219457;23;19915;-80
2024/02/07 02:05:55;;;;;;;2.20;1.98;;;5.50;99.90;;;;;;6194412;23;20039;-81
2024/02/07 02:08:22;;;;;;;0.60;0.60;;;5.50;99.90;;;;;;6220093;23;20016;-80
2024/02/07 02:10:50;;;;;;;;;;;5.50;99.90;;;;;;6217999;23;20028;-81
2024/02/07 02:13:16;;;;;;;0.60;0.60;;;5.50;99.90;;;;;;6218880;23;20327;-81
2024/02/07 02:15:44;;;;;;;;;;;5.60;99.90;;;;;;6218968;23;20016;-80
2024/02/07 02:18:09;;;;;;;0.60;0.60;;;5.40;99.90;;;;;;6168956;23;19951;-80
2024/02/07 02:20:38;;;;;;;0.63;0.63;;;5.40;99.90;;;;;;6219476;23;20039;-80
2024/02/07 02:23:19;;;;;;;1.63;1.63;;;5.40;99.90;;;;;;6171223;23;20012;-81
2024/02/07 02:26:04;;;;;;;0.60;0.60;;;5.40;99.90;;;;;;6193976;23;20012;-81
2024/02/07 02:28:52;;;;;;;0.50;0.50;;;5.40;99.90;;;;;;6245417;23;20069;-79
2024/02/07 02:31:18;;;;;;;0.52;0.52;;;5.60;99.90;;;;;;6192442;23;20085;-79
2024/02/07 02:33:45;;;;;;;;;;;5.40;99.90;;;;;;6192773;23;20012;-79
2024/02/07 02:36:11;;;;;;;1.27;1.27;;;5.40;99.90;;;;;;6215621;23;19919;-78
2024/02/07 02:38:44;;;;;;;0.40;0.40;;;5.50;99.90;;;;;;6191975;23;20144;-81
2024/02/07 02:41:10;;;;;;;0.50;0.50;;;5.90;99.90;;;;;;6190976;23;20043;-79
2024/02/07 02:43:40;;;;;;;0.60;0.60;;;5.50;99.90;;;;;;6214781;23;20474;-80
2024/02/07 02:46:09;;;;;;;0.60;0.60;;;5.50;99.90;;;;;;6215812;23;20082;-79
2024/02/07 02:48:35;;;;;;;0.43;0.43;;;5.50;99.90;;;;;;6168351;23;20016;-79
2024/02/07 02:51:05;;;;;;;0.60;0.60;;;5.50;99.90;;;;;;6193678;23;20340;-79
2024/02/07 02:53:33;;;;;;;0.55;0.55;;;5.40;99.90;;;;;;6216903;23;20117;-79
2024/02/07 02:56:05;;;;;;;0.50;0.50;;;5.70;99.90;;;;;;6216228;23;20488;-79
2024/02/07 02:58:32;;;;;;;0.60;0.60;;;5.50;99.90;;;;;;6215978;23;20401;-80
2024/02/07 03:01:06;;;;;;;0.50;0.50;;;6.30;99.90;;;;;;6169015;23;20090;-80
2024/02/07 03:03:32;;;;;;;0.50;0.50;;;5.50;99.90;;;;;;6243773;23;20456;-80
2024/02/07 03:05:58;;;;;;;2.78;0.70;;;5.50;99.90;;;;;;6190936;23;20105;-81
2024/02/07 03:08:42;;;;;;;0.50;0.50;;;6.20;99.90;;;;;;6191995;23;20012;-80
2024/02/07 03:11:09;;;;;;;0.63;0.63;;;5.50;99.90;;;;;;6213021;23;20051;-81
2024/02/07 03:13:35;;;;;;;1.40;1.40;;;5.50;99.90;;;;;;6190480;23;20346;-80
2024/02/07 03:16:05;;;;;;;0.60;0.60;;;5.40;99.90;;;;;;6191475;23;20019;-81
2024/02/07 03:18:35;;;;;;;0.70;0.70;;;5.40;99.90;;;;;;6167618;23;20023;-80
2024/02/07 03:21:08;;;;;;;0.57;0.57;;;5.40;99.90;;;;;;6216722;23;20012;-81
2024/02/07 03:23:34;;;;;;;0.60;0.60;;;5.30;99.90;;;;;;6217196;23;20078;-81
2024/02/07 03:26:03;;;;;;;0.50;0.50;;;5.30;99.90;;;;;;6190885;23;20020;-81
2024/02/07 03:28:31;;;;;;;0.50;0.50;;;5.20;99.90;;;;;;6215817;23;20039;-82
2024/02/07 03:30:57;;;;;;;0.70;0.70;;;5.80;99.90;;;;;;6215150;23;20048;-80
2024/02/07 03:33:25;;;;;;;0.60;0.60;;;5.30;99.90;;;;;;6241036;23;20020;-80
2024/02/07 03:35:51;;;;;;;0.50;0.50;;;5.80;99.90;;;;;;6215573;23;20012;-80
2024/02/07 03:38:24;;;;;;;0.50;0.50;;;5.20;99.90;;;;;;6169038;23;20020;-80
2024/02/07 03:40:51;;;;;;;0.80;0.80;;;5.00;99.90;;;;;;6191875;23;20016;-80
2024/02/07 03:43:18;;;;;;;0.60;0.60;;;5.00;99.90;;;;;;6166176;23;20347;-80
2024/02/07 03:45:44;;;;;;;0.82;0.80;;;5.10;99.90;;;;;;6216719;23;20020;-85
2024/02/07 03:48:13;;;;;;;4.85;4.38;;;4.90;99.90;;;;;;6215220;23;20042;-80
2024/02/07 03:50:42;;;;;;;0.98;0.98;;;4.90;99.90;;;;;;6214884;23;20665;-80
2024/02/07 03:53:10;;;;;;;0.60;0.60;;;5.00;99.90;;;;;;6164460;23;20027;-80
2024/02/07 03:55:37;;;;;;;0.60;0.60;;;4.80;99.90;;;;;;6164556;23;20023;-80
2024/02/07 03:58:05;;;;;;;0.60;0.60;;;4.80;99.90;;;;;;6190777;23;20016;-81
2024/02/07 04:00:31;;;;;;;0.60;0.60;;;4.80;99.90;;;;;;6191754;23;20016;-82
2024/02/07 04:03:02;;;;;;;0.60;0.60;;;4.80;99.90;;;;;;6241330;23;20016;-80
2024/02/07 04:05:28;;;;;;;0.40;0.40;;;4.70;99.90;;;;;;6215327;23;20530;-80
2024/02/07 04:07:54;;;;;;;0.45;0.45;;;4.70;99.90;;;;;;6241840;23;20016;-80
2024/02/07 04:10:23;;;;;;;0.50;0.50;;;4.70;99.90;;;;;;6164098;23;20395;-80
2024/02/07 05:15:58;;;;;;;0.77;0.77;;;;;;;;;;6244729;23;20028;-80
2024/02/07 05:18:24;;;;;;;0.50;0.50;;;;;;;;;;6219251;23;20012;-81
2024/02/07 05:20:53;;;;;;;0.50;0.50;;;;;;;;;;6219394;23;20076;-80
2024/02/07 05:23:19;;;;;;;0.70;0.70;;;;;;;;;;6192922;23;20019;-80
2024/02/07 05:25:48;;;;;;;0.70;0.70;;;;;;;;;;6218334;23;20051;-80
2024/02/07 05:28:14;;;;;;;0.60;0.60;;;;;;;;;;6218325;23;20016;-81
2024/02/07 05:30:41;;;;;;;0.63;0.63;;;;;;;;;;6194603;23;20498;-81
2024/02/07 05:33:07;;;;;;;;;;;;;;;;;;6220797;23;20027;-80
2024/02/07 05:35:33;;;;;;;0.80;0.80;;;;;;;;;;6245306;23;19961;-80
2024/02/07 05:37:59;;;;;;;0.52;0.52;;;;;;;;;;6219567;23;20023;-80
2024/02/07 05:40:25;;;;;;;0.60;0.60;;;;;;;;;;6218500;23;20012;-81
2024/02/07 05:42:51;;;;;;;;;;;;;;;;;;6220075;23;20086;-80
2024/02/07 05:45:17;;;;;;;0.70;0.70;;;;;;;;;;6193154;23;19997;-81
2024/02/07 05:47:43;;;;;;;0.73;0.73;;;;;;;;;;6192922;23;20008;-81
2024/02/07 05:50:09;;;;;;;;;;;;;;;;;;6216516;23;20039;-79
2024/02/07 05:52:38;;;;;;;0.60;0.60;;;;;;;;;;6244077;23;19970;-80
2024/02/07 05:55:04;;;;;;;0.63;0.63;;;;;;;;;;6216791;23;20440;-81
2024/02/07 05:57:30;;;;;;;2.50;1.95;;;;;;;;;;6217843;23;20051;-80
2024/02/07 05:59:56;;;;;;;;;;;;;;;;;;6195529;23;20105;-81
2024/02/07 06:02:23;;;;;;;0.47;0.47;;;;;;;;;;6217503;23;19915;-78
2024/02/07 06:04:51;;;;;;;;;;;;;;;;;;6217177;23;20487;-77
2024/02/07 06:07:17;;;;;;;0.70;0.70;;;;;;;;;;6214657;23;19911;-79
2024/02/07 06:09:45;;;;;;;0.70;0.70;;;;;;;;;;6215337;23;20062;-79
2024/02/07 06:12:12;;;;;;;0.63;0.63;;;;;;;;;;6215600;23;20456;-79
2024/02/07 06:14:38;;;;;;;0.73;0.73;;;;;;;;;;6191074;23;20024;-79
2024/02/07 06:17:06;;;;;;;0.60;0.60;;;;;;;;;;6189587;23;20026;-80
2024/02/07 06:19:32;;;;;;;0.70;0.70;;;;;;;;;;6214549;23;20012;-80
2024/02/07 06:21:58;;;;;;;0.50;0.50;;;;;;;;;;6190499;23;20444;-79
2024/02/07 06:24:24;;;;;;;0.65;0.65;;;;;;;;;;6217661;23;20080;-78
2024/02/07 06:26:52;;;;;;;0.70;0.70;;;;;;;;;;6216614;23;20048;-78
2024/02/07 06:29:19;;;;;;;0.60;0.60;;;;;;;;;;6216591;23;20031;-79
2024/02/07 06:31:45;;;;;;;0.55;0.55;;;;;;;;;;6215895;23;20047;-79
2024/02/07 06:34:11;;;;;;;;;;;;;;;;;;6190041;23;20023;-79
2024/02/07 06:36:37;;;;;;;0.70;0.70;;;;;;;;;;6189967;23;20340;-79
2024/02/07 06:39:04;;;;;;;0.55;0.55;;;;;;;;;;6242672;23;20012;-79
2024/02/07 06:41:31;;;;;;;0.70;0.70;;;;;;;;;;6216773;23;20452;-82
2024/02/07 06:43:59;;;;;;;0.65;0.65;;;;;;;;;;6245600;23;20016;-79
2024/02/07 06:46:25;;;;;;;2.88;2.67;;;;;;;;;;6219004;23;20091;-80
2024/02/07 06:48:52;;;;;;;0.68;0.68;;;;;;;;;;6220568;23;20511;-81
2024/02/07 06:51:18;;;;;;;0.63;0.63;;;;;;;;;;6215610;23;20088;-80
2024/02/07 06:53:47;;;;;;;0.65;0.65;;;;;;;;;;6226779;23;20024;-81
2024/02/07 06:56:14;;;;;;;0.65;0.65;;;;;;;;;;6226664;23;20016;-80
2024/02/07 06:58:46;;;;;;;1.05;1.05;;;;;;;;;;6252284;23;20023;-80
2024/02/07 07:01:21;;;;;;;0.43;0.43;;;;;;;;;;6245967;23;20050;-81
2024/02/07 07:03:52;;;;;;;0.70;0.70;;;;;;;;;;6249098;23;20051;-80
2024/02/07 07:06:18;;;;;;;0.60;0.60;;;;;;;;;;6196117;23;20090;-80
2024/02/07 07:08:44;;;;;;;;;;;;;;;;;;6193491;23;20016;-78
2024/02/07 07:11:10;;;;;;;0.90;0.90;;;;;;;;;;6195251;23;19957;-77
2024/02/07 07:13:36;;;;;;;0.70;0.70;;;;;;;;;;6194940;23;20020;-80
2024/02/07 07:16:03;;;;;;;0.50;0.50;;;;;;;;;;6172754;23;20020;-79
2024/02/07 07:18:29;;;;;;;1.63;1.63;;;;;;;;;;6172079;23;20086;-79
2024/02/07 07:20:55;;;;;;;;;;;;;;;;;;6171526;23;20432;-80
2024/02/07 07:23:21;;;;;;;0.50;0.50;;;;;;;;;;6195672;23;19934;-80
2024/02/07 07:25:47;;;;;;;;;;;;;;;;;;6196492;23;20055;-80
2024/02/07 07:28:13;;;;;;;0.60;0.60;;;;;;;;;;6196284;23;19923;-81
2024/02/07 07:30:39;;;;;;;;;;;;;;;;;;6194869;23;20016;-80
2024/02/07 07:33:05;;;;;;;0.60;0.60;;;;;;;;;;6196155;23;19959;-79
2024/02/07 07:35:32;;;;;;;;;;;;;;;;;;6199979;23;20047;-80
2024/02/07 07:38:02;;;;;;;0.43;0.43;;;;;;;;;;6197055;23;19922;-79
2024/02/07 07:40:29;;;;;;;0.70;0.70;;;;;;;;;;6172305;23;20020;-78
2024/02/07 07:42:55;;;;;;;0.68;0.68;;;;;;;;;;6170006;23;20074;-79
2024/02/07 07:45:21;;;;;;;;;;;;;;;;;;6193547;23;20027;-79
2024/02/07 07:47:47;;;;;;;0.68;0.68;;;;;;;;;;6195111;23;19915;-79
2024/02/07 07:50:13;;;;;;;0.77;0.77;;;;;;;;;;6246902;23;20016;-79
2024/02/07 07:52:39;;;;;;;0.60;0.60;;;;;;;;;;6195435;23;20012;-81
2024/02/07 07:55:05;;;;;;;;;;;;;;;;;;6251188;23;20020;-83
2024/02/07 07:57:31;;;;;;;0.60;0.60;;;;;;;;;;6224457;23;19931;-81
2024/02/07 07:59:57;;;;;;;;;;;;;;;;;;6173433;23;20034;-82
2024/02/07 08:02:23;;;;;;;0.68;0.68;;;;;;;;;;6197248;23;19938;-82
2024/02/07 08:04:49;;;;;;;0.70;0.70;;;;;;;;;;6172600;23;20070;-81
2024/02/07 08:07:16;;;;;;;0.60;0.60;;;;;;;;;;6201226;23;20020;-81
2024/02/07 08:09:44;;;;;;;0.70;0.70;;;;;;;;;;6200131;23;20054;-83
2024/02/07 08:12:10;;;;;;;0.60;0.60;;;;;;;;;;6199649;23;20027;-80
2024/02/07 08:14:36;;;;;;;;;;;;;;;;;;6173131;23;20024;-82
2024/02/07 08:17:02;;;;;;;0.60;0.60;;;;;;;;;;6196971;23;19915;-82
2024/02/07 08:19:28;;;;;;;0.70;0.70;;;;;;;;;;6201205;23;20012;-82
2024/02/07 08:21:54;;;;;;;;;;;;;;;;;;6255322;23;20079;-81
2024/02/07 08:24:24;;;;;;;0.60;0.60;;;;;;;;;;6165387;23;19916;-79
2024/02/07 08:26:51;;;;;;;0.50;0.50;;;;;;;;;;6138669;23;20056;-82
2024/02/07 08:29:17;;;;;;;0.70;0.70;;;;;;;;;;6140621;23;20021;-82
2024/02/07 08:31:49;;;;;;;0.50;0.50;;;;;;;;;;6119192;23;20442;-81
2024/02/07 08:34:17;;;;;;;0.60;0.60;;;;;;;;;;6166441;23;20020;-82
2024/02/07 08:36:43;;;;;;;0.68;0.68;;;;;;;;;;6143066;23;20116;-82
2024/02/07 08:39:10;;;;;;;0.77;0.77;;;;;;;;;;6117987;23;20014;-85
2024/02/07 08:41:42;;;;;;;0.93;0.93;;;;;;;;;;6142353;23;20013;-82
2024/02/07 08:44:15;;;;;;;0.70;0.70;;;;;;;;;;6166416;23;20040;-81
2024/02/07 08:46:43;;;;;;;0.50;0.50;;;;;;;;;;6139321;23;20484;-80
2024/02/07 08:49:10;;;;;;;0.70;0.70;;;;;;;;;;6117084;23;20107;-82
2024/02/07 08:51:36;;;;;;;0.60;0.60;;;;;;;;;;6142552;23;20056;-82
2024/02/07 08:54:08;;;;;;;0.70;0.70;;;;;;;;;;6143451;23;20119;-83
2024/02/07 08:56:34;;;;;;;0.60;0.60;;;;;;;;;;6115236;23;20068;-83
2024/02/07 08:59:00;;;;;;;;;;;;;;;;;;6116493;23;20017;-82
2024/02/07 09:01:32;;;;;;;0.57;0.57;;;;;;;;;;6141211;23;19954;-82
2024/02/07 09:04:06;;;;;;;0.70;0.70;;;;;;;;;;6144469;23;20020;-83
2024/02/07 09:06:32;;;;;;;;;;;;;;;;;;6137108;23;20049;-80
2024/02/07 09:08:58;;;;;;;0.70;0.70;;;;;;;;;;6136348;23;19915;-83
2024/02/07 09:11:25;;;;;;;0.60;0.60;;;;;;;;;;6164213;23;20017;-82
2024/02/07 09:13:51;;;;;;;;;;;;;;;;;;6114757;23;20048;-82
2024/02/07 09:16:19;;;;;;;0.50;0.50;;;;;;;;;;6142807;23;19916;-82
2024/02/07 09:18:48;;;;;;;4.45;4.25;;;;;;;;;;6144612;23;20017;-83
2024/02/07 09:21:20;;;;;;;0.63;0.63;;;;;;;;;;6143804;23;20341;-81
2024/02/07 09:23:49;;;;;;;0.50;0.50;;;;;;;;;;6116233;23;20017;-79
2024/02/07 09:26:15;;;;;;;0.60;0.60;;;;;;;;;;6138666;23;20496;-81
2024/02/07 09:28:41;;;;;;;0.55;0.55;;;;;;;;;;6138217;23;20949;-81
2024/02/07 09:31:15;;;;;;;;;;;;;;;;;;6139473;23;20440;-80
2024/02/07 09:33:41;;;;;;;0.50;0.50;;;;;;;;;;6161740;23;19915;-81
2024/02/07 09:36:07;;;;;;;;;;;;;;;;;;6199689;23;20016;-81
2024/02/07 09:38:33;;;;;;;0.50;0.50;;;;;;;;;;6197896;23;20247;-80
2024/02/07 09:40:59;;;;;;;;;;;;;;;;;;6171441;23;20020;-81
2024/02/07 09:43:25;;;;;;;0.60;0.60;;;;;;;;;;6196619;23;19911;-82
2024/02/07 09:45:58;;;;;;;0.50;0.50;;;;;;;;;;6223314;23;20459;-80
2024/02/07 09:48:25;;;;;;;0.88;0.88;;;;;;;;;;6170614;23;20023;-80
2024/02/07 09:50:53;;;;;;;0.60;0.60;;;;;;;;;;6171788;23;20016;-80
2024/02/07 09:53:25;;;;;;;0.63;0.63;;;;;;;;;;6221721;23;20079;-80
2024/02/07 09:55:52;;;;;;;1.73;1.73;;;;;;;;;;6221605;23;20060;-80
2024/02/07 09:58:20;;;;;;;0.60;0.60;;;;;;;;;;6197081;23;20294;-80
2024/02/07 10:00:46;;;;;;;1.23;1.23;;;;;;;;;;6194590;23;20083;-80
2024/02/07 10:03:14;;;;;;;0.60;0.60;;;5.60;99.90;;;;;;6201117;23;20068;-79
2024/02/07 10:05:50;;;;;;;0.60;0.60;;;4.70;99.90;;;;;;6201768;23;20027;-81
2024/02/07 10:08:16;;;;;;;0.60;0.60;;;5.60;99.90;;;;;;6201147;23;20055;-82
2024/02/07 10:10:47;;;;;;;0.60;0.60;;;5.60;99.90;;;;;;6201898;23;20026;-81
2024/02/07 10:13:14;;;;;;;0.50;0.50;;;5.60;99.90;;;;;;6227260;23;20020;-81
2024/02/07 10:15:42;;;;;;;0.50;0.50;;;5.60;99.90;;;;;;6175868;23;20020;-81
2024/02/07 10:18:09;;;;;;;0.50;0.50;;;5.70;99.90;;;;;;6201208;23;20035;-81
2024/02/07 10:20:34;;;;;;;0.55;0.55;;;5.80;99.90;;;;;;6176658;23;20019;-81
2024/02/07 10:23:06;;;;;;;4.03;0.85;;;5.80;99.90;;;;;;6227099;23;20012;-78
2024/02/07 10:25:32;;;;;;;0.38;0.38;;;5.80;99.90;;;;;;6226782;23;20015;-80
2024/02/07 10:28:06;;;;;;;0.50;0.50;;;5.90;99.90;;;;;;6201632;23;20020;-80
2024/02/07 10:30:39;;;;;;;1.02;0.98;;;5.90;99.90;;;;;;6224778;23;20487;-82
2024/02/07 10:33:05;;;;;;;0.40;0.40;;;6.00;99.90;;;;;;6200914;23;20012;-81
2024/02/07 10:35:34;;;;;;;0.50;0.50;;;5.90;99.90;;;;;;6175793;23;20535;-80
2024/02/07 10:38:01;;;;;;;0.60;0.60;;;5.90;99.90;;;;;;6253837;23;20008;-82
2024/02/07 10:40:30;;;;;;;0.60;0.60;;;5.90;99.90;;;;;;6253325;23;20016;-81
2024/02/07 10:42:57;;;;;;;0.45;0.45;;;5.90;99.90;;;;;;6249654;23;20372;-82
2024/02/07 10:45:23;;;;;;;0.50;0.50;;;5.90;99.90;;;;;;6224839;23;20012;-81
2024/02/07 10:47:52;;;;;;;0.45;0.45;;;5.90;99.90;;;;;;6201293;23;20008;-81
2024/02/07 10:50:23;;;;;;;0.70;0.70;;;5.90;99.90;;;;;;6200274;23;20090;-80
2024/02/07 10:53:07;;;;;;;8.70;1.13;;;5.90;99.90;;;;;;6204178;23;20040;-81
2024/02/07 10:55:33;;;;;;;0.50;0.50;;;5.90;99.90;;;;;;6227457;23;20042;-83
2024/02/07 10:58:09;;;;;;;0.45;0.45;;;6.00;99.90;;;;;;6202638;23;20023;-80
2024/02/07 11:00:34;;;;;;;0.40;0.40;;;6.10;99.90;;;;;;6200872;23;20475;-80
2024/02/07 11:03:04;;;;;;;3.78;2.30;;;6.10;99.90;;;;;;6227991;23;20339;-80
2024/02/07 11:05:30;;;;;;;;;;;6.20;99.90;;;;;;6200431;23;20008;-80
2024/02/07 11:07:56;;;;;;;0.50;0.50;;;6.30;99.90;;;;;;6200330;23;19941;-81
2024/02/07 11:10:23;;;;;;;;;;;6.40;99.90;;;;;;6230032;23;20395;-82
2024/02/07 11:12:55;;;;;;;1.02;1.02;;;6.40;99.90;;;;;;6228534;23;19919;-80
2024/02/07 11:15:31;;;;;;;0.60;0.60;;;6.40;99.90;;;;;;6232302;23;20039;-80
2024/02/07 11:17:57;;;;;;;0.60;0.60;;;6.30;99.90;;;;;;6253693;23;20039;-81
2024/02/07 11:20:25;;;;;;;0.50;0.50;;;6.30;99.90;;;;;;6254642;23;20012;-81
2024/02/07 11:22:57;;;;;;;0.57;0.57;;;6.40;99.90;;;;;;6254668;23;20012;-79
2024/02/07 11:25:26;;;;;;;0.35;0.35;;;6.30;99.90;;;;;;6200546;23;20356;-78
2024/02/07 11:27:52;;;;;;;0.60;0.60;;;6.30;99.90;;;;;;6250722;23;20012;-80
2024/02/07 11:30:19;;;;;;;0.50;0.50;;;6.30;99.90;;;;;;6194401;23;20023;-80
2024/02/07 11:32:48;;;;;;;0.65;0.65;;;6.30;99.90;;;;;;6247485;23;20016;-80
2024/02/07 11:35:22;;;;;;;0.40;0.40;;;6.40;99.90;;;;;;6228139;23;20078;-81
2024/02/07 11:37:48;;;;;;;0.60;0.60;;;6.30;99.90;;;;;;6224590;23;20020;-80
2024/02/07 11:40:19;;;;;;;0.50;0.50;;;6.30;99.90;;;;;;6251838;23;20016;-80
2024/02/07 11:42:47;;;;;;;0.57;0.57;;;6.30;99.90;;;;;;6251750;23;20066;-81
2024/02/07 11:45:14;;;;;;;;;;;6.30;99.90;;;;;;6252122;23;20347;-81
2024/02/07 11:47:43;;;;;;;0.40;0.40;;;6.30;99.90;;;;;;6252997;23;19911;-81
2024/02/07 11:50:16;;;;;;;0.50;0.50;;;6.30;99.90;;;;;;6250599;23;20039;-80
2024/02/07 11:52:49;;;;;;;0.50;0.50;;;6.30;99.90;;;;;;6252123;23;20074;-81
2024/02/07 11:55:21;;;;;;;0.60;0.60;;;6.20;99.90;;;;;;6202259;23;20095;-81
2024/02/07 11:57:53;;;;;;;0.60;0.60;;;6.30;99.90;;;;;;6252502;23;20484;-81
2024/02/07 12:00:28;;;;;;;0.75;0.75;;;6.30;99.90;;;;;;6224942;23;20068;-81
2024/02/07 12:02:58;;;;;;;0.47;0.47;;;6.30;99.90;;;;;;6201490;23;20013;-81
2024/02/07 12:05:25;;;;;;;0.57;0.57;;;6.30;99.90;;;;;;6224778;23;20143;-81
2024/02/07 12:07:53;;;;;;;0.38;0.38;;;6.30;99.90;;;;;;6251923;23;20019;-80
2024/02/07 12:10:22;;;;;;;0.50;0.50;;;6.30;99.90;;;;;;6226344;23;20023;-80
2024/02/07 12:12:50;;;;;;;0.50;0.50;;;6.30;99.90;;;;;;6251059;23;20012;-81
2024/02/07 12:15:15;;;;;;;0.50;0.50;;;6.30;99.90;;;;;;6225661;23;20020;-81
2024/02/07 12:17:43;;;;;;;0.55;0.55;;;6.40;99.90;;;;;;6226179;23;20471;-81
2024/02/07 12:20:09;;;;;;;0.50;0.50;;;6.40;99.90;;;;;;6225247;23;20016;-80
2024/02/07 12:22:36;;;;;;;0.50;0.50;;;6.40;99.90;;;;;;6251260;23;20023;-79
2024/02/07 12:25:04;;;;;;;0.50;0.50;;;6.60;99.90;;;;;;6199728;23;20016;-80
2024/02/07 12:27:34;;;;;;;0.52;0.52;;;6.60;99.90;;;;;;6226715;23;20320;-79
2024/02/07 12:30:04;;;;;;;0.55;0.55;;;6.60;99.90;;;;;;6226093;23;20020;-82
2024/02/07 12:32:33;;;;;;;0.40;0.40;;;6.70;99.90;;;;;;6228992;23;20059;-80
2024/02/07 12:34:59;;;;;;;0.90;0.90;;;6.70;99.90;;;;;;6222851;23;20344;-80
2024/02/07 12:37:25;;;;;;;0.40;0.40;;;6.70;99.90;;;;;;6224198;23;20099;-82
2024/02/07 12:39:52;;;;;;;0.47;0.47;;;6.80;99.90;;;;;;6225613;23;20031;-82
2024/02/07 12:42:27;;;;;;;0.50;0.50;;;6.90;99.90;;;;;;6202879;23;20012;-81
2024/02/07 12:44:55;;;;;;;0.30;0.30;;;6.90;99.90;;;;;;6225858;23;20015;-81
2024/02/07 12:47:37;;;;;;;0.50;0.50;;;7.00;99.90;;;;;;6255273;23;20066;-80
2024/02/07 12:50:10;;;;;;;0.50;0.50;;;6.70;99.90;;;;;;6217287;23;20020;-81
2024/02/07 12:52:37;;;;;;;0.40;0.40;;;6.90;99.90;;;;;;6233275;23;20012;-81
2024/02/07 12:55:04;;;;;;;0.40;0.40;;;6.80;99.90;;;;;;6201794;23;20024;-82
2024/02/07 12:57:37;;;;;;;0.43;0.43;;;6.70;99.90;;;;;;6228033;23;20027;-84
2024/02/07 13:00:09;;;;;;;0.50;0.50;;;6.70;99.90;;;;;;6256086;23;20036;-82
2024/02/07 13:02:36;;;;;;;0.52;0.52;;;6.40;99.90;;;;;;6260143;23;20043;-82
2024/02/07 13:05:01;;;;;;;;;;;6.40;99.90;;;;;;6182566;23;20012;-83
2024/02/07 13:07:27;;;;;;;0.60;0.60;;;6.40;99.90;;;;;;6231280;23;19958;-84
2024/02/07 13:09:53;;;;;;;0.60;0.60;;;6.40;99.90;;;;;;6228295;23;20020;-82
2024/02/07 13:12:19;;;;;;;0.60;0.60;;;6.60;99.90;;;;;;6259672;23;20023;-83
2024/02/07 13:14:54;;;;;;;0.40;0.40;;;6.90;99.90;;;;;;6257755;23;20105;-82
2024/02/07 13:17:21;;;;;;;0.52;0.52;;;7.00;99.90;;;;;;6255533;23;20050;-83
2024/02/07 13:19:48;;;;;;;1.95;1.40;;;7.20;99.90;;;;;;6229223;23;20019;-82
2024/02/07 13:22:14;;;;;;;0.52;0.52;;;7.30;99.90;;;;;;6228336;23;20065;-83
2024/02/07 13:24:40;;;;;;;0.50;0.50;;;7.30;99.90;;;;;;6229120;23;20044;-82
2024/02/07 13:27:12;;;;;;;0.50;0.50;;;7.50;99.90;;;;;;6227635;23;20020;-84
2024/02/07 13:29:40;;;;;;;1.73;1.58;;;7.50;99.90;;;;;;6255630;23;20096;-82
2024/02/07 13:32:10;;;;;;;0.40;0.40;;;7.20;99.90;;;;;;6205565;23;20087;-84
2024/02/07 13:34:41;;;;;;;2.58;0.95;;;7.40;99.90;;;;;;6253525;23;20016;-83
2024/02/07 13:37:07;;;;;;;0.47;0.47;;;7.40;99.90;;;;;;6229300;23;20071;-82
2024/02/07 13:39:34;;;;;;;0.50;0.50;;;7.40;99.90;;;;;;6230436;23;20016;-84
2024/02/07 13:42:06;;;;;;;0.50;0.50;;;7.30;99.90;;;;;;6256286;23;20012;-84
2024/02/07 13:44:32;;;;;;;0.63;0.63;;;7.30;99.90;;;;;;6204819;23;20016;-86
2024/02/07 13:47:01;;;;;;;0.50;0.50;;;7.10;99.90;;;;;;6228904;23;20023;-83
2024/02/07 13:49:27;;;;;;;0.40;0.40;;;7.10;99.90;;;;;;6181034;23;20016;-83
2024/02/07 13:51:53;;;;;;;0.40;0.40;;;7.00;99.90;;;;;;6228933;23;20017;-82
2024/02/07 13:54:24;;;;;;;0.47;0.47;;;6.90;99.90;;;;;;6235546;23;20027;-85
2024/02/07 13:56:49;;;;;;;0.70;0.70;;;6.90;99.90;;;;;;6231056;23;20068;-82
2024/02/07 13:59:15;;;;;;;;;;;6.90;99.90;;;;;;6207099;23;20359;-81
2024/02/07 14:01:41;;;;;;;0.60;0.60;;;6.90;99.90;;;;;;6257256;23;19951;-82
2024/02/07 14:04:10;;;;;;;0.50;0.50;;;6.90;99.90;;;;;;6230648;23;20009;-81
2024/02/07 14:06:44;;;;;;;0.50;0.50;;;7.00;99.90;;;;;;6228637;23;20042;-86
2024/02/07 14:09:21;;;;;;;0.57;0.57;;;7.10;99.90;;;;;;6256960;23;20016;-84
2024/02/07 14:11:48;;;;;;;0.45;0.45;;;7.10;99.90;;;;;;6204251;23;20020;-82
2024/02/07 14:14:14;;;;;;;0.50;0.50;;;7.20;99.90;;;;;;6204874;23;20020;-85
2024/02/07 14:16:40;;;;;;;0.40;0.40;;;7.30;99.90;;;;;;6204236;23;20024;-83
2024/02/07 14:19:06;;;;;;;0.57;0.57;;;7.50;99.90;;;;;;6205467;23;20039;-84
2024/02/07 14:21:32;;;;;;;0.40;0.40;;;7.60;99.90;;;;;;6255579;23;20092;-82
2024/02/07 14:24:06;;;;;;;0.60;0.60;;;7.50;99.90;;;;;;6255196;23;20016;-85
2024/02/07 14:26:42;;;;;;;0.38;0.38;;;7.30;99.90;;;;;;6224767;23;20043;-80
2024/02/07 14:29:08;;;;;;;0.60;0.60;;;7.20;99.90;;;;;;6227674;23;20103;-81
2024/02/07 14:31:34;;;;;;;0.52;0.52;;;7.10;99.90;;;;;;6227207;23;20016;-82
2024/02/07 14:34:01;;;;;;;0.50;0.50;;;7.10;99.90;;;;;;6230285;23;20293;-84
2024/02/07 14:36:46;;;;;;;0.30;0.30;;;7.10;99.90;;;;;;6230912;23;20061;-83
2024/02/07 14:39:12;;;;;;;0.30;0.30;;;7.10;99.90;;;;;;6206326;23;20026;-83
2024/02/07 14:41:39;;;;;;;0.28;0.28;;;7.20;99.90;;;;;;6227471;23;20016;-83
2024/02/07 14:44:06;;;;;;;1.08;1.08;;;7.00;99.90;;;;;;6236173;23;20008;-81
2024/02/07 14:46:32;;;;;;;0.30;0.30;;;7.10;99.90;;;;;;6228145;23;20074;-84